createdAt,value
2023-04-13T00:02:34.151Z,3.70
2023-04-13T00:05:22.182Z,3.50
2023-04-13T00:08:09.504Z,4.32
2023-04-13T00:10:57.510Z,4.18
2023-04-13T00:13:47.401Z,4.00
2023-04-13T00:16:34.502Z,3.90
2023-04-13T00:19:21.578Z,4.38
2023-04-13T00:22:09.834Z,4.55
2023-04-13T00:24:57.815Z,4.65
2023-04-13T00:27:45.050Z,4.55
2023-04-13T00:30:32.524Z,4.13
2023-04-13T00:33:19.695Z,4.97
2023-04-13T00:36:07.115Z,4.90
2023-04-13T00:38:54.807Z,4.32
2023-04-13T00:41:42.467Z,4.57
2023-04-13T00:44:30.897Z,4.55
2023-04-13T00:47:30.945Z,5.00
2023-04-13T00:53:10.519Z,4.68
2023-04-13T00:55:58.526Z,4.88
2023-04-13T00:58:45.826Z,4.70
2023-04-13T01:01:32.889Z,4.97
2023-04-13T01:04:20.108Z,5.45
2023-04-13T01:07:12.169Z,5.10
2023-04-13T01:10:17.355Z,5.40
2023-04-13T01:13:24.021Z,5.32
2023-04-13T01:16:33.223Z,5.70
2023-04-13T01:19:47.018Z,5.63
2023-04-13T01:22:36.660Z,5.90
2023-04-13T01:25:42.128Z,6.60
2023-04-13T01:28:30.181Z,6.88
2023-04-13T01:31:18.045Z,7.25
2023-04-13T01:34:06.125Z,6.82
2023-04-13T01:36:53.695Z,6.88
2023-04-13T01:39:41.238Z,7.50
2023-04-13T01:42:28.353Z,7.43
2023-04-13T01:45:27.407Z,7.50
2023-04-13T01:48:45.145Z,7.75
2023-04-13T01:51:34.829Z,7.93
2023-04-13T01:54:27.460Z,8.45
2023-04-13T01:57:17.507Z,8.27
2023-04-13T02:02:58.225Z,9.00
2023-04-13T02:05:46.226Z,9.50
2023-04-13T02:08:34.966Z,10.48
2023-04-13T02:11:22.280Z,10.50
2023-04-13T02:14:09.711Z,11.13
2023-04-13T02:16:56.756Z,12.27
2023-04-13T02:19:44.174Z,10.65
2023-04-13T02:22:31.265Z,10.82
2023-04-13T02:25:18.996Z,10.45
2023-04-13T02:28:06.255Z,10.60
2023-04-13T02:30:56.781Z,11.23
2023-04-13T02:33:44.886Z,10.65
2023-04-13T02:36:31.870Z,11.15
2023-04-13T02:39:19.661Z,10.57
2023-04-13T02:42:06.717Z,10.32
2023-04-13T02:44:53.740Z,10.65
2023-04-13T02:47:40.820Z,10.27
2023-04-13T02:50:28.184Z,10.32
2023-04-13T02:53:17.031Z,9.82
2023-04-13T02:56:04.394Z,8.88
2023-04-13T02:58:51.822Z,8.38
2023-04-13T03:01:39.915Z,7.53
2023-04-13T03:04:27.795Z,7.60
2023-04-13T03:07:17.322Z,6.60
2023-04-13T03:10:05.533Z,5.55
2023-04-13T03:12:52.676Z,5.03
2023-04-13T03:15:41.352Z,4.35
2023-04-13T03:18:28.583Z,4.60
2023-04-13T03:21:16.056Z,4.30
2023-04-13T03:24:03.287Z,3.60
2023-04-13T03:26:50.521Z,3.53
2023-04-13T03:29:37.814Z,3.63
2023-04-13T03:32:25.599Z,3.00
2023-04-13T03:35:12.699Z,2.78
2023-04-13T03:38:00.140Z,2.50
2023-04-13T03:40:47.320Z,2.22
2023-04-13T03:43:34.428Z,2.50
2023-04-13T03:46:22.115Z,2.30
2023-04-13T03:49:11.164Z,2.20
2023-04-13T03:51:59.050Z,2.22
2023-04-13T03:54:46.063Z,2.00
2023-04-13T03:57:33.915Z,1.92
2023-04-13T04:00:21.026Z,2.40
2023-04-13T04:03:08.229Z,1.80
2023-04-13T04:05:55.308Z,1.67
2023-04-13T04:08:44.039Z,1.50
2023-04-13T04:11:31.187Z,1.45
2023-04-13T04:14:18.520Z,1.45
2023-04-13T04:17:05.726Z,1.30
2023-04-13T04:19:53.265Z,1.15
2023-04-13T04:22:41.960Z,1.00
2023-04-13T04:25:28.995Z,0.77
2023-04-13T04:28:18.257Z,0.80
2023-04-13T04:31:07.274Z,0.75
2023-04-13T04:33:55.204Z,0.77
2023-04-13T04:36:45.646Z,0.70
2023-04-13T04:39:35.527Z,0.60
2023-04-13T04:42:22.641Z,22.25
2023-04-13T04:45:10.921Z,1.33
2023-04-13T04:47:58.052Z,0.70
2023-04-13T04:50:45.601Z,0.50
2023-04-13T04:53:32.641Z,0.65
2023-04-13T04:56:21.660Z,0.50
2023-04-13T04:59:08.743Z,0.70
2023-04-13T05:01:56.222Z,0.70
2023-04-13T05:04:43.344Z,0.68
2023-04-13T05:07:30.621Z,0.70
2023-04-13T05:10:17.631Z,0.65
2023-04-13T05:13:04.623Z,0.63
2023-04-13T05:15:51.818Z,0.68
2023-04-13T05:18:46.388Z,0.75
2023-04-13T05:21:33.939Z,0.60
2023-04-13T05:24:21.105Z,0.73
2023-04-13T05:27:09.900Z,0.60
2023-04-13T05:29:57.374Z,0.50
2023-04-13T05:32:44.896Z,0.50
2023-04-13T05:35:31.977Z,0.47
2023-04-13T05:38:19.028Z,0.38
2023-04-13T05:41:07.513Z,0.50
2023-04-13T05:43:54.564Z,0.40
2023-04-13T05:46:41.802Z,0.40
2023-04-13T05:49:28.944Z,0.30
2023-04-13T05:52:15.970Z,0.43
2023-04-13T05:55:04.086Z,0.43
2023-04-13T05:57:51.549Z,0.40
2023-04-13T06:00:39.012Z,0.50
2023-04-13T06:03:27.561Z,0.30
2023-04-13T06:06:17.485Z,0.30
2023-04-13T06:09:05.887Z,0.30
2023-04-13T06:11:54.503Z,0.40
2023-04-13T06:14:41.953Z,0.43
2023-04-13T06:17:29.046Z,0.30
2023-04-13T06:20:16.404Z,0.35
2023-04-13T06:23:03.442Z,0.40
2023-04-13T06:25:51.044Z,0.50
2023-04-13T06:28:38.067Z,0.40
2023-04-13T06:31:27.859Z,0.50
2023-04-13T06:34:15.114Z,0.20
2023-04-13T06:37:04.086Z,0.30
2023-04-13T06:39:51.750Z,0.50
2023-04-13T06:42:40.639Z,0.32
2023-04-13T06:45:27.785Z,0.50
2023-04-13T06:48:14.818Z,0.20
2023-04-13T06:51:01.981Z,0.30
2023-04-13T06:53:49.222Z,0.40
2023-04-13T06:56:36.379Z,0.50
2023-04-13T06:59:23.573Z,0.70
2023-04-13T07:02:10.786Z,0.60
2023-04-13T07:04:58.680Z,0.60
2023-04-13T07:07:46.687Z,0.65
2023-04-13T07:10:37.621Z,0.60
2023-04-13T07:13:25.986Z,0.55
2023-04-13T07:16:13.097Z,0.70
2023-04-13T07:19:03.415Z,0.55
2023-04-13T07:21:50.446Z,0.60
2023-04-13T07:24:37.478Z,0.55
2023-04-13T07:27:24.477Z,0.70
2023-04-13T07:30:11.982Z,0.52
2023-04-13T07:32:59.058Z,0.50
2023-04-13T07:35:46.444Z,0.70
2023-04-13T07:38:33.628Z,0.57
2023-04-13T07:41:22.882Z,0.50
2023-04-13T07:44:10.161Z,0.60
2023-04-13T07:46:57.317Z,0.68
2023-04-13T07:49:44.396Z,0.60
2023-04-13T07:52:31.680Z,0.50
2023-04-13T07:55:18.747Z,0.70
2023-04-13T07:58:05.852Z,0.55
2023-04-13T08:00:53.184Z,0.43
2023-04-13T08:03:40.350Z,0.55
2023-04-13T08:06:27.586Z,0.40
2023-04-13T08:09:15.139Z,0.55
2023-04-13T08:12:05.057Z,0.63
2023-04-13T08:14:52.130Z,0.68
2023-04-13T08:17:39.238Z,0.50
2023-04-13T08:20:26.306Z,0.60
2023-04-13T08:23:13.409Z,0.68
2023-04-13T08:26:02.844Z,0.50
2023-04-13T08:28:51.055Z,0.63
2023-04-13T08:31:38.642Z,0.65
2023-04-13T08:34:26.196Z,0.80
2023-04-13T08:37:15.547Z,0.80
2023-04-13T08:40:07.414Z,0.82
2023-04-13T08:42:55.840Z,0.60
2023-04-13T08:45:43.047Z,0.70
2023-04-13T08:48:46.395Z,0.75
2023-04-13T08:51:38.896Z,0.88
2023-04-13T08:54:28.578Z,1.00
2023-04-13T08:57:16.415Z,1.00
2023-04-13T09:00:10.485Z,0.90
2023-04-13T09:03:06.036Z,0.98
2023-04-13T09:06:04.071Z,0.98
2023-04-13T09:08:52.160Z,0.98
2023-04-13T09:11:39.542Z,1.00
2023-04-13T09:14:27.201Z,0.90
2023-04-13T09:17:34.511Z,0.90
2023-04-13T09:20:23.632Z,0.82
2023-04-13T09:23:15.419Z,0.70
2023-04-13T09:26:09.654Z,0.80
2023-04-13T09:28:57.906Z,0.75
2023-04-13T09:31:47.530Z,0.98
2023-04-13T09:34:34.595Z,0.60
2023-04-13T09:37:21.985Z,0.80
2023-04-13T09:40:13.779Z,0.80
2023-04-13T09:43:05.351Z,0.80
2023-04-13T09:45:52.500Z,0.70
2023-04-13T09:48:40.169Z,0.88
2023-04-13T09:51:35.211Z,0.70
2023-04-13T09:54:22.928Z,0.60
2023-04-13T09:57:10.029Z,0.60
2023-04-13T10:00:00.791Z,0.70
2023-04-13T10:02:52.766Z,0.65
2023-04-13T10:05:55.021Z,0.50
2023-04-13T10:08:46.516Z,0.60
2023-04-13T10:11:45.725Z,0.50
2023-04-13T10:14:36.100Z,0.60
2023-04-13T10:17:37.644Z,0.55
2023-04-13T10:20:27.240Z,0.77
2023-04-13T10:26:03.939Z,0.70
2023-04-13T10:28:51.027Z,0.90
2023-04-13T10:31:47.192Z,0.68
2023-04-13T10:34:38.265Z,0.93
2023-04-13T10:37:28.905Z,0.98
2023-04-13T10:40:16.410Z,0.45
2023-04-13T10:43:03.574Z,0.70
2023-04-13T10:45:50.661Z,0.60
2023-04-13T10:48:37.878Z,0.63
2023-04-13T10:51:27.695Z,0.75
2023-04-13T10:54:14.818Z,0.90
2023-04-13T10:57:04.653Z,0.50
2023-04-13T10:59:59.613Z,0.60
2023-04-13T11:02:47.233Z,0.75
2023-04-13T11:05:34.996Z,0.90
2023-04-13T11:08:22.093Z,0.50
2023-04-13T11:11:14.850Z,0.73
2023-04-13T11:14:02.298Z,0.60
2023-04-13T11:16:49.727Z,0.68
2023-04-13T11:19:50.702Z,0.50
2023-04-13T11:22:38.417Z,0.60
2023-04-13T11:25:26.598Z,0.40
2023-04-13T11:28:13.782Z,0.60
2023-04-13T11:31:01.686Z,0.55
2023-04-13T11:33:49.190Z,0.70
2023-04-13T11:36:39.075Z,0.70
2023-04-13T11:39:28.017Z,0.90
2023-04-13T11:42:15.059Z,1.60
2023-04-13T11:45:03.136Z,1.35
2023-04-13T11:47:50.947Z,1.08
2023-04-13T11:50:38.280Z,1.00
2023-04-13T11:53:25.457Z,1.00
2023-04-13T11:56:14.649Z,1.50
2023-04-13T11:59:02.281Z,1.25
2023-04-13T12:01:54.368Z,1.00
2023-04-13T12:04:49.232Z,0.80
2023-04-13T12:07:43.126Z,0.80
2023-04-13T12:13:35.788Z,0.70
2023-04-13T12:16:55.360Z,0.68
2023-04-13T12:19:40.927Z,0.50
2023-04-13T12:22:55.046Z,0.50
2023-04-13T12:26:40.645Z,0.43
2023-04-13T12:29:15.507Z,0.70
2023-04-13T12:32:04.118Z,0.60
2023-04-13T12:34:44.081Z,0.60
2023-04-13T12:37:31.266Z,0.60
2023-04-13T12:40:19.403Z,0.57
2023-04-13T12:43:06.984Z,0.60
2023-04-13T12:45:55.179Z,0.45
2023-04-13T12:48:42.425Z,0.90
2023-04-13T12:51:29.453Z,0.57
2023-04-13T12:54:18.127Z,0.68
2023-04-13T12:57:05.125Z,0.80
2023-04-13T12:59:52.221Z,0.60
2023-04-13T13:02:39.524Z,0.70
2023-04-13T13:05:26.797Z,0.88
2023-04-13T13:08:13.817Z,0.82
2023-04-13T13:11:01.063Z,0.80
2023-04-13T13:13:48.406Z,0.70
2023-04-13T13:16:35.557Z,0.70
2023-04-13T13:19:22.583Z,0.70
2023-04-13T13:22:09.659Z,0.70
2023-04-13T13:24:57.040Z,0.60
2023-04-13T13:30:37.145Z,0.63
2023-04-13T13:33:24.402Z,0.80
2023-04-13T13:36:12.716Z,0.95
2023-04-13T13:39:00.343Z,0.50
2023-04-13T13:41:47.599Z,0.63
2023-04-13T13:44:36.824Z,0.60
2023-04-13T13:47:24.240Z,0.90
2023-04-13T13:50:11.957Z,0.40
2023-04-13T13:53:03.002Z,0.70
2023-04-13T13:55:51.231Z,0.55
2023-04-13T13:58:38.275Z,0.70
2023-04-13T14:01:25.525Z,0.50
2023-04-13T14:04:13.357Z,0.70
2023-04-13T14:07:00.896Z,0.70
2023-04-13T14:09:47.965Z,0.50
2023-04-13T14:12:35.068Z,0.50
2023-04-13T14:15:22.595Z,0.47
2023-04-13T14:18:11.453Z,0.68
2023-04-13T14:20:59.275Z,0.60
2023-04-13T14:23:46.511Z,0.80
2023-04-13T14:26:36.498Z,0.93
2023-04-13T14:32:10.597Z,0.65
2023-04-13T14:34:58.508Z,0.73
2023-04-13T14:37:45.685Z,0.60
2023-04-13T14:40:32.862Z,0.82
2023-04-13T14:43:19.886Z,0.82
2023-04-13T14:46:06.989Z,0.80
2023-04-13T14:48:54.039Z,0.90
2023-04-13T14:51:41.245Z,0.80
2023-04-13T14:54:28.729Z,1.00
2023-04-13T14:57:17.332Z,1.00
2023-04-13T15:00:08.013Z,1.23
2023-04-13T15:02:55.457Z,1.30
2023-04-13T15:05:48.443Z,1.30
2023-04-13T15:08:35.994Z,1.20
2023-04-13T15:11:23.104Z,1.13
2023-04-13T15:14:10.224Z,1.30
2023-04-13T15:16:57.314Z,1.13
2023-04-13T15:19:44.527Z,1.10
2023-04-13T15:22:31.532Z,1.20
2023-04-13T15:25:18.660Z,1.20
2023-04-13T15:28:05.822Z,1.20
2023-04-13T15:30:53.109Z,0.82
2023-04-13T15:33:40.177Z,0.90
2023-04-13T15:36:27.967Z,1.23
2023-04-13T15:39:15.059Z,1.10
2023-04-13T15:42:02.414Z,0.77
2023-04-13T15:44:50.887Z,0.88
2023-04-13T15:47:38.252Z,0.90
2023-04-13T15:50:26.508Z,0.80
2023-04-13T15:53:13.666Z,0.57
2023-04-13T15:56:01.287Z,0.80
2023-04-13T15:58:49.729Z,1.10
2023-04-13T16:01:48.702Z,1.10
2023-04-13T16:04:36.306Z,1.20
2023-04-13T16:07:23.580Z,1.05
2023-04-13T16:10:17.422Z,1.05
2023-04-13T16:13:06.681Z,1.30
2023-04-13T16:15:58.821Z,1.00
2023-04-13T16:18:46.005Z,1.15
2023-04-13T16:21:33.353Z,1.30
2023-04-13T16:24:21.231Z,1.42
2023-04-13T16:27:09.208Z,1.20
2023-04-13T16:29:58.208Z,1.58
2023-04-13T16:32:46.751Z,1.35
2023-04-13T16:35:34.015Z,1.55
2023-04-13T16:38:21.204Z,1.45
2023-04-13T16:41:14.056Z,1.42
2023-04-13T16:44:02.474Z,1.23
2023-04-13T16:46:49.948Z,1.45
2023-04-13T16:49:37.260Z,1.13
2023-04-13T16:52:24.331Z,1.27
2023-04-13T16:55:15.141Z,1.08
2023-04-13T16:58:02.374Z,0.98
2023-04-13T17:00:51.127Z,1.25
2023-04-13T17:03:38.379Z,1.23
2023-04-13T17:06:27.378Z,1.10
2023-04-13T17:09:14.726Z,1.20
2023-04-13T17:12:02.022Z,1.50
2023-04-13T17:14:52.472Z,1.30
2023-04-13T17:17:39.678Z,1.40
2023-04-13T17:20:27.507Z,1.70
2023-04-13T17:23:14.651Z,1.50
2023-04-13T17:26:03.891Z,1.50
2023-04-13T17:28:51.942Z,1.40
2023-04-13T17:31:39.076Z,1.30
2023-04-13T17:34:26.382Z,1.40
2023-04-13T17:37:13.859Z,1.30
2023-04-13T17:40:01.178Z,1.35
2023-04-13T17:42:48.607Z,1.10
2023-04-13T17:45:37.180Z,1.60
2023-04-13T17:48:25.981Z,1.33
2023-04-13T17:51:13.583Z,1.40
2023-04-13T17:54:01.353Z,1.10
2023-04-13T17:56:48.805Z,1.85
2023-04-13T17:59:36.147Z,1.40
2023-04-13T18:02:23.648Z,1.90
2023-04-13T18:05:15.508Z,1.75
2023-04-13T18:08:03.066Z,1.80
2023-04-13T18:10:50.039Z,1.58
2023-04-13T18:13:37.318Z,1.80
2023-04-13T18:16:26.483Z,1.88
2023-04-13T18:19:15.163Z,1.63
2023-04-13T18:22:03.661Z,1.67
2023-04-13T18:24:51.679Z,1.60
2023-04-13T18:27:39.433Z,2.00
2023-04-13T18:30:27.749Z,2.08
2023-04-13T18:33:15.815Z,1.92
2023-04-13T18:36:03.498Z,2.10
2023-04-13T18:38:51.982Z,1.73
2023-04-13T18:41:41.813Z,2.20
2023-04-13T18:44:29.733Z,2.25
2023-04-13T18:47:19.334Z,2.13
2023-04-13T18:50:09.298Z,2.30
2023-04-13T18:52:57.525Z,2.20
2023-04-13T18:55:52.798Z,2.10
2023-04-13T18:58:40.371Z,2.35
2023-04-13T19:01:28.363Z,2.10
2023-04-13T19:04:16.489Z,2.03
2023-04-13T19:07:09.149Z,1.95
2023-04-13T19:09:56.378Z,2.10
2023-04-13T19:12:43.614Z,2.45
2023-04-13T19:15:33.995Z,2.33
2023-04-13T19:18:22.064Z,2.30
2023-04-13T19:21:11.710Z,1.80
2023-04-13T19:23:59.757Z,2.20
2023-04-13T19:26:47.970Z,1.70
2023-04-13T19:29:36.691Z,1.80
2023-04-13T19:32:25.124Z,1.70
2023-04-13T19:35:14.334Z,1.85
2023-04-13T19:38:01.951Z,1.90
2023-04-13T19:40:49.590Z,1.58
2023-04-13T19:43:38.318Z,2.20
2023-04-13T19:46:26.263Z,1.95
2023-04-13T19:49:14.606Z,2.00
2023-04-13T19:52:02.657Z,1.90
2023-04-13T19:54:50.397Z,2.08
2023-04-13T19:57:42.382Z,2.17
2023-04-13T20:00:30.444Z,2.45
2023-04-13T20:03:20.854Z,2.65
2023-04-13T20:06:08.744Z,2.70
2023-04-13T20:09:07.831Z,2.70
2023-04-13T20:11:55.769Z,2.50
2023-04-13T20:14:43.235Z,2.90
2023-04-13T20:17:30.917Z,3.03
2023-04-13T20:20:20.616Z,3.10
2023-04-13T20:23:10.702Z,3.35
2023-04-13T20:25:59.190Z,3.30
2023-04-13T20:28:46.267Z,3.30
2023-04-13T20:31:34.848Z,3.63
2023-04-13T20:34:24.430Z,3.40
2023-04-13T20:37:14.463Z,3.47
2023-04-13T20:42:51.349Z,3.97
2023-04-13T20:45:38.527Z,3.90
2023-04-13T20:51:16.076Z,3.92
2023-04-13T20:54:05.822Z,4.32
2023-04-13T20:56:53.027Z,4.05
2023-04-13T20:59:40.075Z,3.88
2023-04-13T21:02:28.843Z,3.38
2023-04-13T21:05:16.067Z,3.90
2023-04-13T21:08:03.226Z,4.00
2023-04-13T21:10:50.371Z,4.13
2023-04-13T21:13:37.437Z,4.60
2023-04-13T21:16:26.274Z,4.20
2023-04-13T21:19:13.388Z,4.07
2023-04-13T21:22:00.412Z,4.70
2023-04-13T21:24:47.989Z,4.18
2023-04-13T21:27:35.033Z,4.80
2023-04-13T21:30:22.199Z,5.25
2023-04-13T21:33:09.326Z,5.72
2023-04-13T21:35:56.632Z,5.07
2023-04-13T21:38:44.292Z,5.70
2023-04-13T21:41:31.415Z,5.10
2023-04-13T21:44:29.386Z,5.78
2023-04-13T21:47:17.385Z,5.72
2023-04-13T21:50:05.244Z,6.15
2023-04-13T21:52:52.297Z,6.03
2023-04-13T21:55:39.399Z,6.45
2023-04-13T21:58:26.446Z,6.65
2023-04-13T22:01:14.325Z,6.25
2023-04-13T22:04:01.745Z,6.78
2023-04-13T22:06:48.875Z,6.15
2023-04-13T22:09:36.322Z,6.03
2023-04-13T22:12:26.298Z,5.82
2023-04-13T22:15:13.330Z,5.55
2023-04-13T22:18:00.406Z,5.30
2023-04-13T22:20:49.540Z,5.07
2023-04-13T22:23:36.613Z,5.15
2023-04-13T22:26:25.530Z,4.82
2023-04-13T22:29:13.467Z,4.53
2023-04-13T22:32:00.523Z,4.68
2023-04-13T22:34:47.508Z,4.68
2023-04-13T22:37:35.587Z,4.20
2023-04-13T22:40:22.639Z,3.97
2023-04-13T22:43:09.695Z,4.05
2023-04-13T22:45:58.365Z,3.20
2023-04-13T22:48:45.438Z,3.53
2023-04-13T22:51:39.612Z,3.47
2023-04-13T22:54:26.661Z,3.50
2023-04-13T22:57:13.754Z,3.63
2023-04-13T23:03:33.064Z,4.05
2023-04-13T23:06:20.198Z,4.25
2023-04-13T23:09:07.436Z,4.03
2023-04-13T23:11:54.547Z,3.50
2023-04-13T23:14:41.571Z,3.95
2023-04-13T23:17:29.690Z,3.90
2023-04-13T23:20:16.932Z,5.00
2023-04-13T23:23:03.977Z,4.38
2023-04-13T23:25:51.647Z,4.05
2023-04-13T23:28:38.858Z,4.25
2023-04-13T23:31:25.917Z,4.50
2023-04-13T23:34:12.980Z,4.97
2023-04-13T23:36:59.969Z,4.70
2023-04-13T23:39:47.485Z,4.78
2023-04-13T23:42:34.465Z,4.80
2023-04-13T23:45:21.478Z,5.00
2023-04-13T23:48:08.559Z,4.85
2023-04-13T23:50:55.897Z,4.95
2023-04-13T23:53:42.913Z,5.07
2023-04-13T23:56:30.328Z,5.05
2023-04-13T23:59:18.835Z,4.72
